createdAt,value
2022-11-25T00:00:33.592Z,97670.47
2022-11-25T00:03:00.213Z,97673.41
2022-11-25T00:05:28.390Z,97668.94
2022-11-25T00:07:54.911Z,97674.09
2022-11-25T00:10:21.544Z,97670.47
2022-11-25T00:12:47.963Z,97675.19
2022-11-25T00:15:14.623Z,97675.94
2022-11-25T00:17:41.066Z,97673.06
2022-11-25T00:20:07.897Z,97670.59
2022-11-25T00:22:34.337Z,97678.00
2022-11-25T00:25:00.773Z,97682.59
2022-11-25T00:27:27.308Z,97686.72
2022-11-25T00:29:53.721Z,97676.78
2022-11-25T00:32:20.144Z,97668.97
2022-11-25T00:34:46.648Z,97682.09
2022-11-25T00:37:13.248Z,97691.06
2022-11-25T00:39:39.855Z,97691.56
2022-11-25T00:42:25.172Z,97693.75
2022-11-25T00:44:52.448Z,97705.94
2022-11-25T00:47:19.905Z,97697.78
2022-11-25T00:49:47.720Z,97704.63
2022-11-25T00:52:18.490Z,97696.81
2022-11-25T00:54:50.621Z,97703.13
2022-11-25T00:57:18.644Z,97698.94
2022-11-25T00:59:45.228Z,97699.59
2022-11-25T01:02:12.316Z,97694.78
2022-11-25T01:04:38.945Z,97683.00
2022-11-25T01:07:05.467Z,97675.59
2022-11-25T01:09:34.257Z,97681.38
2022-11-25T01:12:03.309Z,97680.72
2022-11-25T01:14:30.564Z,97680.16
2022-11-25T01:16:57.119Z,97685.41
2022-11-25T01:19:23.817Z,97681.56
2022-11-25T01:21:50.313Z,97680.50
2022-11-25T01:24:16.793Z,97681.09
2022-11-25T01:26:43.839Z,97689.00
2022-11-25T01:29:15.278Z,97682.44
2022-11-25T01:31:41.814Z,97688.13
2022-11-25T01:34:18.653Z,97689.47
2022-11-25T01:36:45.434Z,97693.25
2022-11-25T01:39:32.772Z,97696.91
2022-11-25T01:42:00.194Z,97694.00
2022-11-25T01:44:27.868Z,97696.66
2022-11-25T01:46:57.178Z,97694.38
2022-11-25T01:49:42.544Z,97692.69
2022-11-25T01:52:16.685Z,97702.16
2022-11-25T01:54:51.604Z,97705.97
2022-11-25T01:57:21.871Z,97717.63
2022-11-25T01:59:51.736Z,97710.97
2022-11-25T02:02:19.248Z,97712.78
2022-11-25T02:04:46.577Z,97713.44
2022-11-25T02:07:15.403Z,97712.38
2022-11-25T02:09:43.689Z,97711.84
2022-11-25T02:12:10.523Z,97726.44
2022-11-25T02:14:37.362Z,97723.03
2022-11-25T02:17:04.098Z,97729.44
2022-11-25T02:19:57.070Z,97710.28
2022-11-25T02:22:43.551Z,97725.84
2022-11-25T02:25:14.814Z,97724.50
2022-11-25T02:27:43.044Z,97725.09
2022-11-25T02:30:09.632Z,97735.41
2022-11-25T02:32:36.179Z,97728.47
2022-11-25T02:35:02.636Z,97736.81
2022-11-25T02:37:29.333Z,97738.50
2022-11-25T02:39:55.879Z,97733.88
2022-11-25T02:42:22.950Z,97741.16
2022-11-25T02:44:49.644Z,97736.47
2022-11-25T02:47:16.419Z,97740.59
2022-11-25T02:49:45.234Z,97741.28
2022-11-25T02:52:11.861Z,97741.38
2022-11-25T02:54:38.418Z,97748.16
2022-11-25T02:57:05.046Z,97745.34
2022-11-25T02:59:33.897Z,97741.16
2022-11-25T03:02:00.438Z,97746.13
2022-11-25T03:04:27.373Z,97752.84
2022-11-25T03:06:53.800Z,97750.97
2022-11-25T03:09:20.247Z,97751.28
2022-11-25T03:12:05.595Z,97758.50
2022-11-25T03:14:32.256Z,97763.25
2022-11-25T03:16:58.777Z,97759.88
2022-11-25T03:19:26.711Z,97765.09
2022-11-25T03:21:53.186Z,97758.78
2022-11-25T03:24:19.631Z,97763.88
2022-11-25T03:26:48.267Z,97762.88
2022-11-25T03:29:14.754Z,97772.34
2022-11-25T03:31:41.405Z,97770.03
2022-11-25T03:34:10.952Z,97772.50
2022-11-25T03:36:37.533Z,97773.56
2022-11-25T03:39:04.117Z,97779.72
2022-11-25T03:41:30.580Z,97772.78
2022-11-25T03:43:57.389Z,97775.91
2022-11-25T03:46:24.135Z,97779.78
2022-11-25T03:48:52.514Z,97780.31
2022-11-25T03:51:19.147Z,97780.56
2022-11-25T03:53:45.629Z,97780.66
2022-11-25T03:56:14.417Z,97776.72
2022-11-25T03:58:40.945Z,97786.47
2022-11-25T04:01:09.865Z,97771.97
2022-11-25T04:03:36.560Z,97785.47
2022-11-25T04:06:04.036Z,97779.88
2022-11-25T04:08:30.953Z,97782.81
2022-11-25T04:10:58.232Z,97778.94
2022-11-25T04:13:28.456Z,97782.13
2022-11-25T04:15:55.100Z,97780.66
2022-11-25T04:18:21.870Z,97774.25
2022-11-25T04:20:52.277Z,97775.31
2022-11-25T04:23:18.780Z,97776.84
2022-11-25T04:26:06.996Z,97781.44
2022-11-25T04:28:37.420Z,97776.59
2022-11-25T04:31:08.041Z,97768.63
2022-11-25T04:33:37.352Z,97767.44
2022-11-25T04:36:04.001Z,97768.38
2022-11-25T04:38:30.809Z,97764.47
2022-11-25T04:40:58.252Z,97774.25
2022-11-25T04:43:24.844Z,97760.31
2022-11-25T04:46:13.973Z,97761.75
2022-11-25T04:48:42.928Z,97765.31
2022-11-25T04:51:09.500Z,97764.19
2022-11-25T04:53:36.046Z,97778.03
2022-11-25T04:56:02.633Z,97779.41
2022-11-25T04:58:53.207Z,97770.84
2022-11-25T05:01:19.908Z,97772.91
2022-11-25T05:03:55.938Z,97778.19
2022-11-25T05:06:25.093Z,97776.56
2022-11-25T05:08:52.056Z,97773.25
2022-11-25T05:11:19.871Z,97760.13
2022-11-25T05:13:46.624Z,97765.66
2022-11-25T05:16:13.127Z,97770.94
2022-11-25T05:18:40.001Z,97768.06
2022-11-25T05:21:07.566Z,97771.69
2022-11-25T05:23:38.273Z,97770.88
2022-11-25T05:26:04.985Z,97771.03
2022-11-25T05:28:38.104Z,97773.91
2022-11-25T05:31:04.783Z,97773.91
2022-11-25T05:33:32.137Z,97778.19
2022-11-25T05:35:59.936Z,97774.88
2022-11-25T05:38:31.759Z,97785.91
2022-11-25T05:41:03.114Z,97779.75
2022-11-25T05:43:30.212Z,97796.47
2022-11-25T05:45:57.281Z,97796.53
2022-11-25T05:48:24.577Z,97804.50
2022-11-25T05:50:51.316Z,97803.50
2022-11-25T05:53:21.747Z,97815.13
2022-11-25T05:55:54.082Z,97823.81
2022-11-25T05:58:29.456Z,97828.78
2022-11-25T06:00:59.063Z,97828.97
2022-11-25T06:03:27.373Z,97833.47
2022-11-25T06:05:56.033Z,97837.06
2022-11-25T06:08:22.615Z,97832.19
2022-11-25T06:10:49.109Z,97838.69
2022-11-25T06:13:15.564Z,97845.88
2022-11-25T06:15:42.927Z,97848.63
2022-11-25T06:18:10.950Z,97851.00
2022-11-25T06:20:38.075Z,97847.56
2022-11-25T06:23:04.845Z,97848.44
2022-11-25T06:25:35.375Z,97842.59
2022-11-25T06:28:18.576Z,97852.13
2022-11-25T06:30:48.454Z,97849.63
2022-11-25T06:33:22.590Z,97855.63
2022-11-25T06:35:50.039Z,97859.28
2022-11-25T06:38:16.452Z,97866.47
2022-11-25T06:40:42.884Z,97858.03
2022-11-25T06:43:09.492Z,97858.25
2022-11-25T06:45:35.956Z,97857.81
2022-11-25T06:48:02.405Z,97854.56
2022-11-25T06:50:28.854Z,97849.00
2022-11-25T06:52:55.373Z,97847.78
2022-11-25T06:55:21.836Z,97850.06
2022-11-25T06:57:48.449Z,97865.06
2022-11-25T07:00:15.087Z,97860.84
2022-11-25T07:02:46.632Z,97868.13
2022-11-25T07:05:14.938Z,97871.31
2022-11-25T07:07:41.378Z,97877.00
2022-11-25T07:10:08.203Z,97879.00
2022-11-25T07:12:34.825Z,97884.75
2022-11-25T07:15:01.288Z,97876.66
2022-11-25T07:17:27.703Z,97885.59
2022-11-25T07:19:54.188Z,97886.81
2022-11-25T07:22:20.822Z,97884.75
2022-11-25T07:24:47.403Z,97890.16
2022-11-25T07:27:13.861Z,97880.72
2022-11-25T07:30:29.030Z,97890.97
2022-11-25T07:32:26.736Z,97883.75
2022-11-25T07:34:53.225Z,97880.25
2022-11-25T07:37:19.703Z,97881.78
2022-11-25T07:39:46.197Z,97883.91
2022-11-25T07:42:12.637Z,97878.03
2022-11-25T07:44:39.064Z,97887.03
2022-11-25T07:47:25.366Z,97886.09
2022-11-25T07:49:51.824Z,97886.56
2022-11-25T07:52:20.097Z,97889.59
2022-11-25T07:54:46.612Z,97881.06
2022-11-25T07:57:13.302Z,97882.81
2022-11-25T07:59:41.337Z,97881.50
2022-11-25T08:02:09.729Z,97884.34
2022-11-25T08:04:37.023Z,97893.97
2022-11-25T08:07:03.578Z,97885.97
2022-11-25T08:09:29.999Z,97889.88
2022-11-25T08:11:56.521Z,97889.09
2022-11-25T08:14:23.003Z,97892.78
2022-11-25T08:16:49.408Z,97888.78
2022-11-25T08:19:17.224Z,97882.84
2022-11-25T08:21:44.179Z,97892.81
2022-11-25T08:24:20.712Z,97892.25
2022-11-25T08:26:47.764Z,97901.47
2022-11-25T08:29:15.683Z,97907.94
2022-11-25T08:31:43.038Z,97905.13
2022-11-25T08:34:11.984Z,97904.88
2022-11-25T08:36:39.798Z,97905.28
2022-11-25T08:39:29.069Z,97898.44
2022-11-25T08:41:54.832Z,97898.19
2022-11-25T08:44:21.247Z,97905.97
2022-11-25T08:46:47.849Z,97905.97
2022-11-25T08:49:17.125Z,97907.81
2022-11-25T08:51:43.793Z,97907.44
2022-11-25T08:54:10.217Z,97907.78
2022-11-25T08:56:36.709Z,97904.16
2022-11-25T08:59:03.537Z,97891.22
2022-11-25T09:01:30.352Z,97894.81
2022-11-25T09:03:57.681Z,97896.84
2022-11-25T09:06:25.681Z,97897.69
2022-11-25T09:08:55.015Z,97901.94
2022-11-25T09:11:21.496Z,97895.72
2022-11-25T09:13:48.002Z,97903.03
2022-11-25T09:16:15.244Z,97900.09
2022-11-25T09:18:41.732Z,97897.69
2022-11-25T09:21:10.187Z,97895.97
2022-11-25T09:23:38.498Z,97893.97
2022-11-25T09:26:05.721Z,97892.38
2022-11-25T09:28:32.705Z,97890.50
2022-11-25T09:30:59.183Z,97896.75
2022-11-25T09:33:25.723Z,97893.91
2022-11-25T09:35:52.188Z,97887.66
2022-11-25T09:38:18.645Z,97892.63
2022-11-25T09:40:48.076Z,97883.47
2022-11-25T09:43:48.607Z,97885.47
2022-11-25T09:46:53.729Z,97879.56
2022-11-25T09:49:36.906Z,97875.94
2022-11-25T09:52:15.710Z,97866.44
2022-11-25T09:54:48.698Z,97870.22
2022-11-25T09:57:27.049Z,97856.31
2022-11-25T10:00:02.394Z,97857.13
2022-11-25T10:02:57.913Z,97854.88
2022-11-25T10:05:29.407Z,97862.50
2022-11-25T10:07:59.371Z,97846.97
2022-11-25T10:10:27.362Z,97845.03
2022-11-25T10:12:56.719Z,97848.09
2022-11-25T10:15:44.225Z,97839.94
2022-11-25T10:18:17.937Z,97837.81
2022-11-25T10:20:44.537Z,97838.25
2022-11-25T10:23:28.459Z,97834.56
2022-11-25T10:25:57.451Z,97825.06
2022-11-25T10:28:25.720Z,97825.13
2022-11-25T10:30:55.269Z,97818.66
2022-11-25T10:33:26.409Z,97820.91
2022-11-25T10:35:55.290Z,97821.88
2022-11-25T10:38:36.556Z,97822.44
2022-11-25T10:41:03.805Z,97825.50
2022-11-25T10:43:32.049Z,97820.03
2022-11-25T10:45:58.612Z,97817.50
2022-11-25T10:48:44.537Z,97815.34
2022-11-25T10:51:14.221Z,97805.84
2022-11-25T10:53:40.633Z,97797.50
2022-11-25T10:56:11.776Z,97803.81
2022-11-25T10:58:39.951Z,97796.03
2022-11-25T11:01:13.005Z,97802.50
2022-11-25T11:03:39.722Z,97799.91
2022-11-25T11:06:06.147Z,97795.38
2022-11-25T11:08:40.733Z,97793.28
2022-11-25T11:11:11.229Z,97788.41
2022-11-25T11:13:37.734Z,97792.63
2022-11-25T11:16:04.521Z,97784.88
2022-11-25T11:18:37.174Z,97792.59
2022-11-25T11:21:04.983Z,97782.94
2022-11-25T11:23:31.531Z,97783.81
2022-11-25T11:25:58.098Z,97780.50
2022-11-25T11:28:37.105Z,97782.16
2022-11-25T11:31:15.907Z,97782.50
2022-11-25T11:33:48.641Z,97788.22
2022-11-25T11:36:28.329Z,97786.22
2022-11-25T11:39:13.290Z,97790.63
2022-11-25T11:41:44.053Z,97791.63
2022-11-25T11:44:29.225Z,97788.91
2022-11-25T11:47:04.818Z,97779.13
2022-11-25T11:49:31.416Z,97779.47
2022-11-25T11:51:57.841Z,97787.56
2022-11-25T11:54:35.660Z,97776.78
2022-11-25T11:57:04.701Z,97790.59
2022-11-25T11:59:31.113Z,97781.16
2022-11-25T12:02:16.552Z,97778.72
2022-11-25T12:04:51.183Z,97778.72
2022-11-25T12:07:17.635Z,97772.16
2022-11-25T12:09:48.064Z,97773.47
2022-11-25T12:12:17.206Z,97775.91
2022-11-25T12:14:47.012Z,97766.94
2022-11-25T12:17:16.953Z,97764.81
2022-11-25T12:19:52.241Z,97767.97
2022-11-25T12:22:27.240Z,97771.06
2022-11-25T12:25:04.163Z,97756.97
2022-11-25T12:27:42.573Z,97764.50
2022-11-25T12:30:13.480Z,97759.38
2022-11-25T12:32:58.747Z,97759.94
2022-11-25T12:35:31.219Z,97758.84
2022-11-25T12:38:06.816Z,97766.59
2022-11-25T12:40:41.169Z,97767.22
2022-11-25T12:43:22.991Z,97769.97
2022-11-25T12:45:51.856Z,97762.84
2022-11-25T12:48:21.546Z,97763.47
2022-11-25T12:50:51.289Z,97760.69
2022-11-25T12:53:38.636Z,97759.78
2022-11-25T12:56:09.918Z,97756.53
2022-11-25T12:58:36.463Z,97758.53
2022-11-25T13:01:21.725Z,97750.06
2022-11-25T13:03:48.187Z,97753.84
2022-11-25T13:06:33.800Z,97750.09
2022-11-25T13:09:09.608Z,97761.41
2022-11-25T13:11:46.740Z,97765.19
2022-11-25T13:14:40.750Z,97761.50
2022-11-25T13:17:13.655Z,97766.13
2022-11-25T13:19:40.477Z,97758.97
2022-11-25T13:22:23.489Z,97766.41
2022-11-25T13:24:50.445Z,97768.09
2022-11-25T13:27:29.985Z,97766.81
2022-11-25T13:29:56.618Z,97760.78
2022-11-25T13:32:28.840Z,97757.44
2022-11-25T13:35:13.897Z,97765.28
2022-11-25T13:37:40.784Z,97767.31
2022-11-25T13:40:19.569Z,97771.72
2022-11-25T13:42:46.210Z,97776.72
2022-11-25T13:45:33.379Z,97774.88
2022-11-25T13:48:29.109Z,97779.16
2022-11-25T13:51:14.415Z,97782.25
2022-11-25T13:53:41.275Z,97777.56
2022-11-25T13:56:28.537Z,97784.72
2022-11-25T13:59:10.057Z,97778.09
2022-11-25T14:01:38.041Z,97781.00
2022-11-25T14:04:06.812Z,97785.69
2022-11-25T14:06:39.310Z,97783.69
2022-11-25T14:09:05.728Z,97775.63
2022-11-25T14:11:32.448Z,97769.25
2022-11-25T14:14:15.916Z,97771.94
2022-11-25T14:16:54.629Z,97779.06
2022-11-25T14:19:55.178Z,97776.88
2022-11-25T14:22:36.979Z,97771.84
2022-11-25T14:25:24.980Z,97775.38
2022-11-25T14:27:57.292Z,97763.25
2022-11-25T14:30:26.404Z,97775.38
2022-11-25T14:33:02.121Z,97776.78
2022-11-25T14:35:32.593Z,97785.56
2022-11-25T14:38:25.567Z,97791.47
2022-11-25T14:40:58.201Z,97786.13
2022-11-25T14:43:25.793Z,97787.75
2022-11-25T14:46:11.210Z,97793.09
2022-11-25T14:48:38.464Z,97797.03
2022-11-25T14:51:09.777Z,97792.06
2022-11-25T14:53:47.363Z,97784.78
2022-11-25T14:56:15.649Z,97787.41
2022-11-25T14:58:46.225Z,97791.78
2022-11-25T15:01:20.294Z,97788.31
2022-11-25T15:03:48.003Z,97796.53
2022-11-25T15:06:15.714Z,97796.06
2022-11-25T15:08:43.756Z,97791.88
2022-11-25T15:11:13.525Z,97793.88
2022-11-25T15:13:44.468Z,97800.22
2022-11-25T15:16:18.691Z,97798.06
2022-11-25T15:18:56.010Z,97796.34
2022-11-25T15:21:30.413Z,97797.94
2022-11-25T15:23:56.952Z,97809.97
2022-11-25T15:26:24.822Z,97800.97
2022-11-25T15:28:55.840Z,97800.31
2022-11-25T15:31:30.051Z,97811.34
2022-11-25T15:33:58.460Z,97802.88
2022-11-25T15:36:25.796Z,97796.97
2022-11-25T15:38:52.674Z,97800.03
2022-11-25T15:41:28.309Z,97805.94
2022-11-25T15:43:56.505Z,97797.06
2022-11-25T15:46:24.052Z,97800.59
2022-11-25T15:48:52.018Z,97801.94
2022-11-25T15:51:29.254Z,97813.00
2022-11-25T15:54:01.927Z,97813.16
2022-11-25T15:56:28.833Z,97816.03
2022-11-25T15:59:01.320Z,97818.97
2022-11-25T16:01:29.858Z,97827.50
2022-11-25T16:04:09.555Z,97830.22
2022-11-25T16:06:36.006Z,97829.06
2022-11-25T16:09:03.917Z,97826.88
2022-11-25T16:11:33.626Z,97832.47
2022-11-25T16:14:23.988Z,97826.63
2022-11-25T16:16:51.032Z,97831.00
2022-11-25T16:19:19.316Z,97826.53
2022-11-25T16:21:56.694Z,97832.75
2022-11-25T16:24:27.731Z,97833.78
2022-11-25T16:27:00.774Z,97830.69
2022-11-25T16:29:31.501Z,97833.69
2022-11-25T16:31:58.509Z,97838.13
2022-11-25T16:34:26.301Z,97834.19
2022-11-25T16:36:53.549Z,97839.38
2022-11-25T16:39:20.683Z,97841.78
2022-11-25T16:41:58.462Z,97840.63
2022-11-25T16:44:26.103Z,97847.31
2022-11-25T16:46:53.312Z,97848.03
2022-11-25T16:49:20.394Z,97855.34
2022-11-25T16:51:46.951Z,97850.88
2022-11-25T16:54:13.430Z,97859.81
2022-11-25T16:56:41.196Z,97855.31
2022-11-25T16:59:10.015Z,97847.94
2022-11-25T17:01:36.519Z,97855.19
2022-11-25T17:04:03.007Z,97859.28
2022-11-25T17:06:30.422Z,97846.31
2022-11-25T17:08:56.896Z,97851.63
2022-11-25T17:11:30.763Z,97855.28
2022-11-25T17:13:59.090Z,97860.53
2022-11-25T17:16:26.836Z,97857.28
2022-11-25T17:18:54.842Z,97863.59
2022-11-25T17:21:26.696Z,97864.44
2022-11-25T17:23:55.326Z,97856.66
2022-11-25T17:26:26.085Z,97851.81
2022-11-25T17:29:01.782Z,97862.50
2022-11-25T17:31:29.842Z,97877.28
2022-11-25T17:33:56.330Z,97875.38
2022-11-25T17:36:22.911Z,97879.59
2022-11-25T17:38:49.417Z,97884.75
2022-11-25T17:41:16.977Z,97880.56
2022-11-25T17:43:44.452Z,97884.03
2022-11-25T17:46:11.818Z,97880.41
2022-11-25T17:48:38.852Z,97889.72
2022-11-25T17:51:07.573Z,97891.44
2022-11-25T17:53:37.835Z,97890.88
2022-11-25T17:56:22.997Z,97898.19
2022-11-25T17:58:49.819Z,97906.09
2022-11-25T18:01:16.328Z,97903.94
2022-11-25T18:03:42.828Z,97910.44
2022-11-25T18:06:09.334Z,97907.31
2022-11-25T18:08:35.868Z,97901.78
2022-11-25T18:11:04.149Z,97909.28
2022-11-25T18:13:32.697Z,97913.34
2022-11-25T18:15:59.149Z,97916.53
2022-11-25T18:18:25.817Z,97913.56
2022-11-25T18:20:52.653Z,97920.09
2022-11-25T18:23:19.735Z,97923.72
2022-11-25T18:25:46.507Z,97926.72
2022-11-25T18:28:16.711Z,97924.19
2022-11-25T18:30:43.389Z,97933.66
2022-11-25T18:33:13.448Z,97944.28
2022-11-25T18:35:40.616Z,97952.72
2022-11-25T18:38:08.824Z,97959.97
2022-11-25T18:40:36.876Z,97949.16
2022-11-25T18:43:04.453Z,97955.28
2022-11-25T18:45:33.098Z,97954.44
2022-11-25T18:47:59.727Z,97954.63
2022-11-25T18:50:26.858Z,97948.03
2022-11-25T18:52:53.333Z,97951.66
2022-11-25T18:55:20.992Z,97955.75
2022-11-25T18:57:49.078Z,97953.19
2022-11-25T19:00:38.550Z,97957.97
2022-11-25T19:03:06.538Z,97954.44
2022-11-25T19:05:33.348Z,97963.66
2022-11-25T19:07:59.983Z,97956.78
2022-11-25T19:10:30.706Z,97963.84
2022-11-25T19:12:59.212Z,97959.38
2022-11-25T19:15:26.397Z,97961.53
2022-11-25T19:17:57.539Z,97973.88
2022-11-25T19:20:25.892Z,97975.97
2022-11-25T19:22:55.576Z,97974.75
2022-11-25T19:25:24.999Z,97977.94
2022-11-25T19:27:56.467Z,97973.88
2022-11-25T19:30:24.421Z,97978.81
2022-11-25T19:32:52.316Z,97979.84
2022-11-25T19:35:45.217Z,97990.19
2022-11-25T19:38:17.522Z,97992.25
2022-11-25T19:40:43.992Z,97996.91
2022-11-25T19:43:10.474Z,98003.78
2022-11-25T19:45:37.344Z,98003.34
2022-11-25T19:48:06.699Z,97998.84
2022-11-25T19:50:34.433Z,98001.63
2022-11-25T19:53:00.898Z,98004.63
2022-11-25T19:55:32.247Z,98008.69
2022-11-25T19:57:59.106Z,98015.94
2022-11-25T20:00:25.686Z,98017.44
2022-11-25T20:02:53.612Z,98013.78
2022-11-25T20:05:26.432Z,98014.88
2022-11-25T20:07:52.946Z,98027.88
2022-11-25T20:10:24.225Z,98023.41
2022-11-25T20:12:52.224Z,98034.06
2022-11-25T20:15:19.051Z,98037.69
2022-11-25T20:17:53.122Z,98031.28
2022-11-25T20:20:24.742Z,98030.59
2022-11-25T20:22:51.155Z,98039.13
2022-11-25T20:25:18.344Z,98034.03
2022-11-25T20:27:44.877Z,98029.31
2022-11-25T20:30:15.960Z,98046.44
2022-11-25T20:32:42.456Z,98035.19
2022-11-25T20:35:09.189Z,98050.84
2022-11-25T20:37:50.482Z,98041.91
2022-11-25T20:40:22.040Z,98055.09
2022-11-25T20:42:49.581Z,98043.53
2022-11-25T20:45:17.378Z,98047.88
2022-11-25T20:47:44.292Z,98058.25
2022-11-25T20:50:12.537Z,98054.56
2022-11-25T20:52:39.407Z,98058.41
2022-11-25T20:55:14.134Z,98059.78
2022-11-25T20:57:40.574Z,98060.38
2022-11-25T21:00:15.021Z,98065.31
2022-11-25T21:02:41.648Z,98064.00
2022-11-25T21:05:08.373Z,98063.78
2022-11-25T21:07:34.896Z,98076.94
2022-11-25T21:10:01.541Z,98071.22
2022-11-25T21:12:27.991Z,98069.91
2022-11-25T21:14:54.418Z,98072.09
2022-11-25T21:17:20.881Z,98070.69
2022-11-25T21:19:47.352Z,98077.78
2022-11-25T21:22:14.657Z,98075.91
2022-11-25T21:24:42.341Z,98081.91
2022-11-25T21:27:14.453Z,98088.09
2022-11-25T21:29:42.620Z,98079.13
2022-11-25T21:32:19.186Z,98077.94
2022-11-25T21:34:45.633Z,98082.88
2022-11-25T21:37:12.191Z,98085.91
2022-11-25T21:39:38.650Z,98082.09
2022-11-25T21:42:07.239Z,98084.00
2022-11-25T21:44:39.632Z,98094.44
2022-11-25T21:47:13.457Z,98095.97
2022-11-25T21:49:39.897Z,98104.63
2022-11-25T21:52:06.364Z,98090.06
2022-11-25T21:54:32.780Z,98097.03
2022-11-25T21:56:59.369Z,98100.16
2022-11-25T21:59:25.966Z,98102.63
2022-11-25T22:01:52.875Z,98115.53
2022-11-25T22:04:20.534Z,98116.47
2022-11-25T22:06:47.453Z,98120.56
2022-11-25T22:09:14.101Z,98123.69
2022-11-25T22:11:45.293Z,98126.94
2022-11-25T22:14:22.685Z,98126.16
2022-11-25T22:16:49.315Z,98119.28
2022-11-25T22:19:20.388Z,98116.84
2022-11-25T22:21:46.867Z,98111.41
2022-11-25T22:24:14.981Z,98118.22
2022-11-25T22:26:41.934Z,98128.19
2022-11-25T22:29:12.973Z,98126.91
2022-11-25T22:31:39.629Z,98137.25
2022-11-25T22:34:06.308Z,98133.72
2022-11-25T22:36:36.923Z,98141.22
2022-11-25T22:39:09.383Z,98134.50
2022-11-25T22:41:35.880Z,98137.13
2022-11-25T22:44:02.451Z,98142.44
2022-11-25T22:46:29.960Z,98143.56
2022-11-25T22:48:56.369Z,98139.75
2022-11-25T22:51:26.123Z,98149.75
2022-11-25T22:53:52.590Z,98149.44
2022-11-25T22:56:20.104Z,98151.81
2022-11-25T22:58:46.788Z,98148.66
2022-11-25T23:01:14.892Z,98147.19
2022-11-25T23:03:42.037Z,98153.00
2022-11-25T23:06:12.533Z,98152.25
2022-11-25T23:08:39.188Z,98154.75
2022-11-25T23:11:06.205Z,98149.75
2022-11-25T23:13:32.638Z,98156.97
2022-11-25T23:16:00.286Z,98158.50
2022-11-25T23:18:42.821Z,98154.06
2022-11-25T23:21:17.896Z,98159.44
2022-11-25T23:23:44.361Z,98159.16
2022-11-25T23:26:11.236Z,98155.84
2022-11-25T23:28:37.725Z,98165.06
2022-11-25T23:31:04.347Z,98157.41
2022-11-25T23:33:38.763Z,98165.03
2022-11-25T23:36:11.213Z,98168.44
2022-11-25T23:38:49.868Z,98160.03
2022-11-25T23:41:20.629Z,98163.47
2022-11-25T23:43:47.123Z,98161.44
2022-11-25T23:46:14.481Z,98165.97
2022-11-25T23:48:42.179Z,98160.91
2022-11-25T23:51:09.384Z,98155.06
2022-11-25T23:53:37.784Z,98161.69
2022-11-25T23:56:04.576Z,98166.72
2022-11-25T23:58:31.101Z,98181.63
